createdAt,value
2023-10-29T00:05:05.773Z,12.01
2023-10-29T00:10:10.926Z,12.15
2023-10-29T00:15:14.868Z,12.12
2023-10-29T00:20:20.751Z,12.01
2023-10-29T00:25:25.196Z,12.13
2023-10-29T00:30:29.054Z,12.17
2023-10-29T00:35:34.433Z,11.97
2023-10-29T00:40:40.525Z,12.14
2023-10-29T00:45:45.859Z,11.97
2023-10-29T00:50:51.946Z,11.56
2023-10-29T00:55:57.198Z,11.54
2023-10-29T01:01:01.172Z,11.54
2023-10-29T01:06:09.614Z,11.58
2023-10-29T01:11:14.594Z,11.33
2023-10-29T01:16:18.666Z,11.47
2023-10-29T01:21:24.329Z,11.24
2023-10-29T01:26:28.262Z,11.25
2023-10-29T01:31:32.163Z,11.56
2023-10-29T01:36:37.411Z,11.51
2023-10-29T01:41:41.310Z,11.10
2023-10-29T01:46:45.269Z,10.94
2023-10-29T01:51:51.502Z,11.10
2023-10-29T01:56:55.366Z,11.00
2023-10-29T02:01:59.373Z,10.86
2023-10-29T02:07:04.721Z,11.16
2023-10-29T02:12:09.986Z,11.03
2023-10-29T02:17:14.269Z,11.23
2023-10-29T02:22:19.790Z,11.01
2023-10-29T02:27:24.068Z,11.06
2023-10-29T02:32:28.287Z,10.82
2023-10-29T02:37:35.411Z,10.88
2023-10-29T02:42:39.304Z,10.84
2023-10-29T02:47:43.182Z,10.58
2023-10-29T02:52:48.524Z,10.49
2023-10-29T02:57:52.340Z,10.51
2023-10-29T03:02:56.318Z,10.52
2023-10-29T03:08:02.010Z,10.48
2023-10-29T03:13:05.873Z,10.34
2023-10-29T03:18:09.787Z,10.61
2023-10-29T03:23:15.261Z,10.27
2023-10-29T03:28:19.138Z,10.22
2023-10-29T03:33:23.433Z,10.51
2023-10-29T03:38:28.890Z,10.39
2023-10-29T03:43:34.371Z,9.84
2023-10-29T03:48:44.367Z,10.16
2023-10-29T03:53:50.490Z,10.37
2023-10-29T03:58:54.382Z,10.15
2023-10-29T04:03:58.302Z,10.34
2023-10-29T04:09:03.631Z,10.12
2023-10-29T04:14:07.743Z,10.26
2023-10-29T04:19:11.824Z,10.12
2023-10-29T04:24:17.436Z,10.18
2023-10-29T04:29:23.767Z,10.20
2023-10-29T04:34:27.624Z,10.34
2023-10-29T04:39:33.784Z,10.34
2023-10-29T04:44:37.682Z,9.82
2023-10-29T04:49:41.689Z,9.83
2023-10-29T04:54:47.655Z,9.80
2023-10-29T04:59:53.568Z,9.64
2023-10-29T05:04:58.776Z,9.90
2023-10-29T05:10:04.215Z,9.71
2023-10-29T05:15:09.773Z,9.56
2023-10-29T05:20:14.357Z,9.63
2023-10-29T05:25:19.651Z,9.77
2023-10-29T05:30:25.440Z,10.07
2023-10-29T05:35:29.527Z,10.39
2023-10-29T05:40:35.056Z,10.47
2023-10-29T05:45:39.018Z,10.31
2023-10-29T05:50:43.056Z,10.64
2023-10-29T05:55:48.322Z,10.89
2023-10-29T06:00:52.531Z,10.50
2023-10-29T06:05:57.007Z,11.11
2023-10-29T06:11:02.349Z,11.23
2023-10-29T06:16:09.728Z,11.87
2023-10-29T06:21:13.644Z,13.01
2023-10-29T06:26:19.301Z,13.38
2023-10-29T06:31:29.725Z,14.98
2023-10-29T06:36:33.955Z,16.10
2023-10-29T06:41:39.282Z,16.85
2023-10-29T06:46:43.294Z,17.79
2023-10-29T06:51:47.129Z,18.18
2023-10-29T06:56:52.547Z,19.07
2023-10-29T07:01:58.033Z,19.75
2023-10-29T07:07:02.085Z,19.86
2023-10-29T07:12:08.791Z,20.24
2023-10-29T07:17:12.711Z,19.75
2023-10-29T07:22:16.585Z,20.32
2023-10-29T07:27:21.865Z,21.57
2023-10-29T07:32:25.710Z,22.48
2023-10-29T07:37:29.601Z,22.85
2023-10-29T07:42:34.842Z,22.79
2023-10-29T07:47:38.740Z,22.04
2023-10-29T07:52:42.632Z,22.51
2023-10-29T07:57:47.937Z,23.29
2023-10-29T08:02:51.865Z,24.37
2023-10-29T08:07:56.042Z,24.03
2023-10-29T08:13:01.658Z,23.92
2023-10-29T08:18:05.974Z,23.50
2023-10-29T08:23:10.640Z,23.72
2023-10-29T08:28:15.884Z,24.13
2023-10-29T08:33:21.016Z,24.39
2023-10-29T08:38:24.857Z,24.77
2023-10-29T08:43:31.705Z,24.44
2023-10-29T08:48:38.742Z,24.53
2023-10-29T08:53:43.382Z,24.58
2023-10-29T08:58:48.737Z,25.73
2023-10-29T09:03:54.868Z,25.19
2023-10-29T09:09:04.342Z,25.55
2023-10-29T09:14:11.959Z,24.72
2023-10-29T09:19:16.050Z,25.00
2023-10-29T09:24:20.025Z,25.78
2023-10-29T09:29:25.420Z,26.57
2023-10-29T09:34:29.220Z,28.37
2023-10-29T09:39:33.441Z,29.03
2023-10-29T09:44:42.949Z,30.14
2023-10-29T09:49:47.197Z,29.90
2023-10-29T09:54:52.909Z,29.49
2023-10-29T09:59:58.264Z,30.70
2023-10-29T10:05:05.593Z,30.11
2023-10-29T10:10:11.440Z,29.76
2023-10-29T10:15:17.954Z,29.19
2023-10-29T10:20:24.100Z,29.60
2023-10-29T10:25:29.998Z,29.59
2023-10-29T10:30:37.334Z,29.36
2023-10-29T10:35:45.528Z,29.03
2023-10-29T10:40:57.644Z,29.25
2023-10-29T10:46:06.844Z,28.90
2023-10-29T10:51:13.411Z,29.45
2023-10-29T10:56:18.305Z,29.49
2023-10-29T11:01:26.540Z,29.99
2023-10-29T11:06:30.744Z,29.34
2023-10-29T11:11:36.674Z,29.24
2023-10-29T11:16:52.816Z,28.90
2023-10-29T11:22:29.815Z,29.66
2023-10-29T11:27:37.808Z,29.17
2023-10-29T11:32:43.331Z,29.47
2023-10-29T11:37:48.219Z,28.76
2023-10-29T11:42:52.333Z,29.20
2023-10-29T11:48:14.359Z,29.08
2023-10-29T11:53:27.543Z,27.85
2023-10-29T11:58:31.378Z,28.14
2023-10-29T12:03:36.959Z,28.39
2023-10-29T12:08:42.436Z,28.05
2023-10-29T12:13:48.817Z,28.30
2023-10-29T12:18:55.596Z,28.96
2023-10-29T12:24:02.969Z,28.82
2023-10-29T12:29:08.473Z,28.74
2023-10-29T12:34:13.924Z,27.95
2023-10-29T12:39:18.021Z,28.01
2023-10-29T12:44:22.849Z,28.40
2023-10-29T12:49:34.947Z,28.31
2023-10-29T12:54:45.347Z,28.22
2023-10-29T12:59:49.444Z,28.75
2023-10-29T13:04:54.789Z,28.54
2023-10-29T13:10:01.266Z,28.41
2023-10-29T13:15:05.797Z,28.04
2023-10-29T13:20:13.087Z,27.46
2023-10-29T13:25:17.797Z,26.89
2023-10-29T13:30:21.909Z,27.28
2023-10-29T13:35:28.288Z,27.47
2023-10-29T13:40:33.364Z,27.67
2023-10-29T13:45:38.626Z,27.08
2023-10-29T13:50:43.989Z,26.93
2023-10-29T13:55:48.293Z,26.76
2023-10-29T14:00:52.256Z,26.57
2023-10-29T14:05:57.876Z,26.34
2023-10-29T14:11:02.317Z,26.20
2023-10-29T14:16:08.435Z,26.34
2023-10-29T14:21:13.773Z,26.09
2023-10-29T14:26:19.533Z,25.54
2023-10-29T14:31:23.344Z,25.56
2023-10-29T14:36:28.731Z,25.73
2023-10-29T14:41:32.712Z,25.69
2023-10-29T14:46:37.725Z,26.19
2023-10-29T14:51:42.966Z,25.16
2023-10-29T14:56:46.906Z,24.85
2023-10-29T15:01:53.428Z,23.94
2023-10-29T15:06:58.765Z,23.62
2023-10-29T15:12:04.776Z,22.46
2023-10-29T15:17:08.835Z,21.61
2023-10-29T15:22:14.423Z,20.76
2023-10-29T15:27:18.766Z,20.40
2023-10-29T15:32:23.160Z,20.35
2023-10-29T15:37:29.724Z,20.12
2023-10-29T15:42:35.268Z,19.32
2023-10-29T15:47:39.246Z,18.89
2023-10-29T15:52:44.871Z,18.57
2023-10-29T15:57:51.376Z,18.41
2023-10-29T16:02:56.138Z,18.28
2023-10-29T16:08:01.749Z,18.31
2023-10-29T16:13:06.334Z,18.18
2023-10-29T16:18:10.732Z,18.05
2023-10-29T16:23:16.345Z,17.58
2023-10-29T16:28:20.620Z,17.06
2023-10-29T16:33:24.785Z,16.89
2023-10-29T16:38:30.570Z,16.92
2023-10-29T16:43:34.706Z,16.71
2023-10-29T16:48:39.446Z,16.66
2023-10-29T16:53:46.467Z,16.41
2023-10-29T16:58:51.721Z,16.28
2023-10-29T17:03:55.754Z,16.13
2023-10-29T17:09:01.466Z,16.08
2023-10-29T17:14:06.352Z,16.22
2023-10-29T17:19:10.428Z,16.16
2023-10-29T17:24:15.928Z,15.97
2023-10-29T17:29:19.854Z,16.03
2023-10-29T17:34:23.748Z,15.92
2023-10-29T17:39:29.213Z,15.62
2023-10-29T17:44:36.052Z,15.77
2023-10-29T17:49:39.995Z,15.40
2023-10-29T17:54:45.355Z,15.45
2023-10-29T17:59:49.366Z,15.24
2023-10-29T18:04:53.448Z,15.22
2023-10-29T18:09:58.829Z,15.11
2023-10-29T18:15:05.053Z,14.78
2023-10-29T18:20:10.680Z,14.76
2023-10-29T18:25:16.196Z,14.76
2023-10-29T18:30:21.868Z,14.59
2023-10-29T18:35:25.909Z,14.82
2023-10-29T18:40:32.246Z,14.52
2023-10-29T18:45:41.521Z,14.24
2023-10-29T18:50:45.409Z,14.42
2023-10-29T18:55:50.740Z,14.49
2023-10-29T19:00:55.424Z,14.12
2023-10-29T19:05:59.476Z,13.83
2023-10-29T19:11:06.020Z,14.02
2023-10-29T19:16:10.324Z,14.16
2023-10-29T19:21:15.369Z,14.09
2023-10-29T19:26:21.091Z,14.13
2023-10-29T19:31:28.004Z,14.04
2023-10-29T19:36:37.246Z,14.14
2023-10-29T19:41:42.537Z,14.35
2023-10-29T19:46:46.682Z,14.11
2023-10-29T19:51:51.408Z,13.92
2023-10-29T19:56:58.303Z,13.76
2023-10-29T20:02:03.401Z,13.73
2023-10-29T20:07:10.106Z,13.80
2023-10-29T20:12:16.130Z,13.44
2023-10-29T20:17:20.212Z,13.14
2023-10-29T20:22:25.444Z,13.08
2023-10-29T20:27:31.029Z,12.89
2023-10-29T20:32:35.172Z,12.92
2023-10-29T20:37:39.327Z,12.94
2023-10-29T20:42:44.616Z,13.13
2023-10-29T20:47:49.688Z,13.18
2023-10-29T20:52:53.577Z,13.10
2023-10-29T20:57:59.476Z,12.69
2023-10-29T21:03:04.241Z,12.74
2023-10-29T21:08:08.309Z,12.67
2023-10-29T21:13:13.739Z,12.65
2023-10-29T21:18:17.642Z,12.80
2023-10-29T21:23:24.896Z,12.89
2023-10-29T21:28:30.369Z,12.82
2023-10-29T21:33:34.660Z,13.09
2023-10-29T21:38:39.320Z,12.74
2023-10-29T21:43:46.473Z,12.54
2023-10-29T21:48:50.762Z,12.45
2023-10-29T21:53:54.689Z,12.28
2023-10-29T21:59:00.358Z,12.03
2023-10-29T22:04:04.550Z,12.07
2023-10-29T22:09:09.992Z,12.14
2023-10-29T22:14:15.354Z,12.00
2023-10-29T22:19:19.759Z,12.01
2023-10-29T22:24:24.009Z,12.13
2023-10-29T22:29:30.226Z,12.26
2023-10-29T22:34:34.103Z,12.38
2023-10-29T22:39:38.101Z,12.31
2023-10-29T22:44:43.368Z,12.18
2023-10-29T22:49:47.728Z,11.98
2023-10-29T22:54:51.901Z,12.10
2023-10-29T22:59:58.774Z,12.45
2023-10-29T23:05:18.619Z,12.69
2023-10-29T23:10:25.228Z,12.94
2023-10-29T23:15:30.529Z,13.23
2023-10-29T23:20:36.064Z,12.94
2023-10-29T23:25:39.919Z,12.85
2023-10-29T23:30:45.807Z,12.45
2023-10-29T23:35:53.098Z,12.14
2023-10-29T23:40:58.452Z,12.03
2023-10-29T23:46:04.879Z,12.01
2023-10-29T23:51:09.102Z,12.10
2023-10-29T23:56:13.068Z,12.28
